createdAt,value
2023-05-10T00:02:09.210Z,28.30
2023-05-10T00:04:36.392Z,29.17
2023-05-10T00:07:03.377Z,25.67
2023-05-10T00:09:30.226Z,33.10
2023-05-10T00:11:59.524Z,22.00
2023-05-10T00:14:26.440Z,25.53
2023-05-10T00:16:53.520Z,20.97
2023-05-10T00:19:20.800Z,29.47
2023-05-10T00:21:47.786Z,17.47
2023-05-10T00:24:14.624Z,20.93
2023-05-10T00:26:43.347Z,20.10
2023-05-10T00:29:10.341Z,17.10
2023-05-10T00:31:37.213Z,16.83
2023-05-10T00:34:04.077Z,20.27
2023-05-10T00:36:32.389Z,14.27
2023-05-10T00:38:59.424Z,21.60
2023-05-10T00:41:26.317Z,16.87
2023-05-10T00:43:53.200Z,19.67
2023-05-10T00:46:20.130Z,17.10
2023-05-10T00:48:47.129Z,24.07
2023-05-10T00:51:15.033Z,15.87
2023-05-10T00:53:42.192Z,14.37
2023-05-10T00:56:09.276Z,21.67
2023-05-10T00:58:36.134Z,17.53
2023-05-10T01:01:03.418Z,21.50
2023-05-10T01:03:30.679Z,16.80
2023-05-10T01:05:57.719Z,18.37
2023-05-10T01:08:24.870Z,19.77
2023-05-10T01:10:51.871Z,19.00
2023-05-10T01:13:34.623Z,16.40
2023-05-10T01:16:05.167Z,16.23
2023-05-10T01:18:34.583Z,16.10
2023-05-10T01:21:12.997Z,15.23
2023-05-10T01:23:52.034Z,15.93
2023-05-10T01:26:48.893Z,15.23
2023-05-10T01:29:34.366Z,19.53
2023-05-10T01:32:23.675Z,17.80
2023-05-10T01:35:44.385Z,15.23
2023-05-10T01:38:16.800Z,15.33
2023-05-10T01:40:55.834Z,15.67
2023-05-10T01:43:32.346Z,16.97
2023-05-10T01:46:12.023Z,14.13
2023-05-10T01:48:52.617Z,18.17
2023-05-10T01:51:24.986Z,18.40
2023-05-10T01:53:55.289Z,13.83
2023-05-10T01:56:26.867Z,25.03
2023-05-10T01:58:55.268Z,22.50
2023-05-10T02:01:23.172Z,23.00
2023-05-10T02:03:52.974Z,25.20
2023-05-10T02:06:23.323Z,29.00
2023-05-10T02:08:51.635Z,26.73
2023-05-10T02:11:19.740Z,27.50
2023-05-10T02:13:49.046Z,28.30
2023-05-10T02:16:18.131Z,30.67
2023-05-10T02:18:45.913Z,30.83
2023-05-10T02:21:14.368Z,34.73
2023-05-10T02:23:41.647Z,50.60
2023-05-10T02:26:09.930Z,29.20
2023-05-10T02:28:38.765Z,29.93
2023-05-10T02:31:07.210Z,40.00
2023-05-10T02:33:35.969Z,33.20
2023-05-10T02:36:04.616Z,32.50
2023-05-10T02:38:32.799Z,38.93
2023-05-10T02:41:01.711Z,39.30
2023-05-10T02:43:31.169Z,38.50
2023-05-10T02:45:58.668Z,40.60
2023-05-10T02:48:25.613Z,44.43
2023-05-10T02:50:56.029Z,45.77
2023-05-10T02:53:29.700Z,44.53
2023-05-10T02:56:00.799Z,38.20
2023-05-10T02:58:28.124Z,48.63
2023-05-10T03:00:55.268Z,45.90
2023-05-10T03:03:22.269Z,49.07
2023-05-10T03:05:49.102Z,53.37
2023-05-10T03:08:16.165Z,52.23
2023-05-10T03:10:52.324Z,56.70
2023-05-10T03:13:33.920Z,61.73
2023-05-10T03:16:09.092Z,60.27
2023-05-10T03:18:47.594Z,67.17
2023-05-10T03:21:17.406Z,74.43
2023-05-10T03:24:01.516Z,75.30
2023-05-10T03:26:30.172Z,72.67
2023-05-10T03:29:00.022Z,67.30
2023-05-10T03:31:26.984Z,65.63
2023-05-10T03:33:54.332Z,79.73
2023-05-10T03:36:21.206Z,79.77
2023-05-10T03:38:48.180Z,68.97
2023-05-10T03:41:15.287Z,65.67
2023-05-10T03:43:42.966Z,62.10
2023-05-10T03:46:09.865Z,78.80
2023-05-10T03:48:36.775Z,70.50
2023-05-10T03:51:03.738Z,62.70
2023-05-10T03:53:30.621Z,51.83
2023-05-10T03:55:57.583Z,60.77
2023-05-10T03:58:24.565Z,62.97
2023-05-10T04:00:52.750Z,63.30
2023-05-10T04:03:19.802Z,62.40
2023-05-10T04:05:46.682Z,60.70
2023-05-10T04:08:13.627Z,59.17
2023-05-10T04:10:40.911Z,59.80
2023-05-10T04:13:07.839Z,55.20
2023-05-10T04:15:34.900Z,56.27
2023-05-10T04:18:02.038Z,59.03
2023-05-10T04:20:29.235Z,50.20
2023-05-10T04:22:56.172Z,60.50
2023-05-10T04:25:22.998Z,66.87
2023-05-10T04:27:49.805Z,63.90
2023-05-10T04:30:16.859Z,56.70
2023-05-10T04:32:43.920Z,61.30
2023-05-10T04:35:11.808Z,67.33
2023-05-10T04:37:38.748Z,59.47
2023-05-10T04:40:06.450Z,65.80
2023-05-10T04:42:33.596Z,66.63
2023-05-10T04:45:00.421Z,78.77
2023-05-10T04:47:27.255Z,77.90
2023-05-10T04:49:54.094Z,76.37
2023-05-10T04:52:21.032Z,75.00
2023-05-10T04:54:48.355Z,80.70
2023-05-10T04:57:15.213Z,77.63
2023-05-10T04:59:42.020Z,78.60
2023-05-10T05:02:09.167Z,84.87
2023-05-10T05:04:36.112Z,90.67
2023-05-10T05:07:02.943Z,80.23
2023-05-10T05:09:29.793Z,79.57
2023-05-10T05:11:57.038Z,80.87
2023-05-10T05:14:26.117Z,81.57
2023-05-10T05:16:54.154Z,81.33
2023-05-10T05:19:21.093Z,72.50
2023-05-10T05:21:47.918Z,83.97
2023-05-10T05:24:14.768Z,76.60
2023-05-10T05:26:41.639Z,75.63
2023-05-10T05:29:08.519Z,90.10
2023-05-10T05:31:35.355Z,71.93
2023-05-10T05:34:02.229Z,76.43
2023-05-10T05:36:29.078Z,82.07
2023-05-10T05:38:56.096Z,78.53
2023-05-10T05:41:22.913Z,77.60
2023-05-10T05:43:49.765Z,76.17
2023-05-10T05:46:16.662Z,74.90
2023-05-10T05:48:43.653Z,76.90
2023-05-10T05:51:10.582Z,83.20
2023-05-10T05:53:37.466Z,78.10
2023-05-10T05:56:04.781Z,79.87
2023-05-10T05:58:31.701Z,79.70
2023-05-10T06:00:58.576Z,82.80
2023-05-10T06:03:25.518Z,78.70
2023-05-10T06:05:52.419Z,79.30
2023-05-10T06:08:19.232Z,82.77
2023-05-10T06:10:46.512Z,89.17
2023-05-10T06:13:13.756Z,76.17
2023-05-10T06:15:41.159Z,101.83
2023-05-10T06:18:08.420Z,84.30
2023-05-10T06:20:35.334Z,74.17
2023-05-10T06:23:02.315Z,83.33
2023-05-10T06:25:29.116Z,82.10
2023-05-10T06:27:58.802Z,81.30
2023-05-10T06:30:30.112Z,68.20
2023-05-10T06:32:57.757Z,74.00
2023-05-10T06:35:24.837Z,84.57
2023-05-10T06:37:52.566Z,65.40
2023-05-10T06:40:19.764Z,73.27
2023-05-10T06:42:47.487Z,73.93
2023-05-10T06:45:15.880Z,75.83
2023-05-10T06:47:43.215Z,74.93
2023-05-10T06:50:10.862Z,77.37
2023-05-10T06:52:38.021Z,71.23
2023-05-10T06:55:05.853Z,79.00
2023-05-10T06:57:33.191Z,69.77
2023-05-10T07:00:00.576Z,68.33
2023-05-10T07:02:27.771Z,71.57
2023-05-10T07:04:55.261Z,67.10
2023-05-10T07:07:22.298Z,67.73
2023-05-10T07:09:50.077Z,61.60
2023-05-10T07:12:17.039Z,73.50
2023-05-10T07:14:43.927Z,65.07
2023-05-10T07:17:11.151Z,55.93
2023-05-10T07:19:38.104Z,65.20
2023-05-10T07:22:04.990Z,60.60
2023-05-10T07:24:32.637Z,53.80
2023-05-10T07:26:59.593Z,47.77
2023-05-10T07:29:26.834Z,54.53
2023-05-10T07:31:55.406Z,48.40
2023-05-10T07:34:24.007Z,46.67
2023-05-10T07:36:50.867Z,46.70
2023-05-10T07:39:26.506Z,40.90
2023-05-10T07:41:53.982Z,41.80
2023-05-10T07:44:21.489Z,52.40
2023-05-10T07:46:48.834Z,42.37
2023-05-10T07:49:15.910Z,39.70
2023-05-10T07:51:43.643Z,36.20
2023-05-10T07:54:10.678Z,50.23
2023-05-10T07:56:37.602Z,39.03
2023-05-10T07:59:06.291Z,36.97
2023-05-10T08:01:34.566Z,27.77
2023-05-10T08:04:03.072Z,34.20
2023-05-10T08:06:31.265Z,28.70
2023-05-10T08:08:58.842Z,30.17
2023-05-10T08:11:26.170Z,29.70
2023-05-10T08:13:54.043Z,35.37
2023-05-10T08:16:21.413Z,30.37
2023-05-10T08:18:50.268Z,31.20
2023-05-10T08:21:17.366Z,34.27
2023-05-10T08:23:45.297Z,28.00
2023-05-10T08:26:12.393Z,33.50
2023-05-10T08:28:39.456Z,29.53
2023-05-10T08:31:06.587Z,32.77
2023-05-10T08:33:33.820Z,28.27
2023-05-10T08:36:00.842Z,28.40
2023-05-10T08:38:27.707Z,34.50
2023-05-10T08:40:59.884Z,35.70
2023-05-10T08:43:31.071Z,33.57
2023-05-10T08:46:02.395Z,34.23
2023-05-10T08:48:30.977Z,33.60
2023-05-10T08:50:59.991Z,37.07
2023-05-10T08:53:29.813Z,33.10
2023-05-10T08:55:57.147Z,27.60
2023-05-10T08:58:24.132Z,31.57
2023-05-10T09:00:54.152Z,28.93
2023-05-10T09:03:21.121Z,31.93
2023-05-10T09:05:49.518Z,30.53
2023-05-10T09:08:19.805Z,24.30
2023-05-10T09:10:48.686Z,26.30
2023-05-10T09:13:16.774Z,25.87
2023-05-10T09:15:45.459Z,24.60
2023-05-10T09:18:12.896Z,33.90
2023-05-10T09:20:39.812Z,32.00
2023-05-10T09:23:07.055Z,28.87
2023-05-10T09:25:36.888Z,27.97
2023-05-10T09:28:07.039Z,30.33
2023-05-10T09:30:33.930Z,23.80
2023-05-10T09:33:01.909Z,22.97
2023-05-10T09:35:31.337Z,22.03
2023-05-10T09:38:01.494Z,24.70
2023-05-10T09:40:30.053Z,24.67
2023-05-10T09:43:08.960Z,25.73
2023-05-10T09:45:38.621Z,18.43
2023-05-10T09:48:07.088Z,19.97
2023-05-10T09:50:35.307Z,21.77
2023-05-10T09:53:04.696Z,27.03
2023-05-10T09:58:22.289Z,32.63
2023-05-10T10:00:52.441Z,24.80
2023-05-10T10:03:21.538Z,25.30
2023-05-10T10:05:49.705Z,26.67
2023-05-10T10:08:17.870Z,25.83
2023-05-10T10:10:47.661Z,26.33
2023-05-10T10:13:15.215Z,20.23
2023-05-10T10:15:44.718Z,26.87
2023-05-10T10:18:16.381Z,29.37
2023-05-10T10:20:43.707Z,28.37
2023-05-10T10:23:10.865Z,29.97
2023-05-10T10:25:39.745Z,26.70
2023-05-10T10:28:27.518Z,26.50
2023-05-10T10:30:57.386Z,25.63
2023-05-10T10:33:53.649Z,19.43
2023-05-10T10:36:21.422Z,25.60
2023-05-10T10:38:48.214Z,21.70
2023-05-10T10:41:36.003Z,24.20
2023-05-10T10:44:37.709Z,34.23
2023-05-10T10:47:15.407Z,23.60
2023-05-10T10:49:42.604Z,19.77
2023-05-10T10:52:24.618Z,31.57
2023-05-10T10:55:09.467Z,19.77
2023-05-10T10:57:42.545Z,18.03
2023-05-10T11:00:32.439Z,17.13
2023-05-10T11:03:05.504Z,17.80
2023-05-10T11:05:43.709Z,22.40
2023-05-10T11:08:13.139Z,21.10
2023-05-10T11:10:41.206Z,15.83
2023-05-10T11:13:10.341Z,19.17
2023-05-10T11:15:39.906Z,18.47
2023-05-10T11:18:29.871Z,17.23
2023-05-10T11:21:01.046Z,17.13
2023-05-10T11:23:41.085Z,13.57
2023-05-10T11:26:12.126Z,19.63
2023-05-10T11:28:46.964Z,14.40
2023-05-10T11:31:18.306Z,15.00
2023-05-10T11:33:51.153Z,15.20
2023-05-10T11:36:34.059Z,24.90
2023-05-10T11:39:01.019Z,15.40
2023-05-10T11:41:30.602Z,14.27
2023-05-10T11:43:58.778Z,13.43
2023-05-10T11:46:28.056Z,17.23
2023-05-10T11:49:01.749Z,19.37
2023-05-10T11:51:28.999Z,20.77
2023-05-10T11:53:57.796Z,20.93
2023-05-10T11:56:24.881Z,23.90
2023-05-10T11:58:58.790Z,27.50
2023-05-10T12:01:27.759Z,26.13
2023-05-10T12:03:56.554Z,25.07
2023-05-10T12:06:23.686Z,24.37
2023-05-10T12:08:54.797Z,24.43
2023-05-10T12:11:25.377Z,33.73
2023-05-10T12:13:52.801Z,23.50
2023-05-10T12:16:29.384Z,25.90
2023-05-10T12:19:01.392Z,23.67
2023-05-10T12:21:31.802Z,25.13
2023-05-10T12:24:04.466Z,22.10
2023-05-10T12:26:32.067Z,22.77
2023-05-10T12:29:16.891Z,22.53
2023-05-10T12:31:55.003Z,21.10
2023-05-10T12:34:32.776Z,20.70
2023-05-10T12:37:00.000Z,19.73
2023-05-10T12:39:27.037Z,25.70
2023-05-10T12:41:54.104Z,18.93
2023-05-10T12:44:21.164Z,19.40
2023-05-10T12:46:48.063Z,18.93
2023-05-10T12:49:15.002Z,16.33
2023-05-10T12:51:41.901Z,16.47
2023-05-10T12:54:08.803Z,16.93
2023-05-10T12:56:35.712Z,15.73
2023-05-10T12:59:02.616Z,15.87
2023-05-10T13:01:29.565Z,15.20
2023-05-10T13:03:56.409Z,16.20
2023-05-10T13:06:23.385Z,18.07
2023-05-10T13:08:50.305Z,17.47
2023-05-10T13:11:18.097Z,16.10
2023-05-10T13:13:44.994Z,13.33
2023-05-10T13:16:11.841Z,14.17
2023-05-10T13:18:38.749Z,14.73
2023-05-10T13:21:06.548Z,12.80
2023-05-10T13:23:33.502Z,14.57
2023-05-10T13:26:00.346Z,13.77
2023-05-10T13:28:27.534Z,15.17
2023-05-10T13:30:54.449Z,14.80
2023-05-10T13:33:21.284Z,16.23
2023-05-10T13:35:48.081Z,16.70
2023-05-10T13:38:15.277Z,13.90
2023-05-10T13:40:42.108Z,20.80
2023-05-10T13:43:08.973Z,13.43
2023-05-10T13:45:35.831Z,16.40
2023-05-10T13:48:02.786Z,16.07
2023-05-10T13:50:29.693Z,15.00
2023-05-10T13:52:56.623Z,14.03
2023-05-10T13:55:23.500Z,13.27
2023-05-10T13:57:50.322Z,14.93
2023-05-10T14:00:17.594Z,16.13
2023-05-10T14:02:44.806Z,12.40
2023-05-10T14:05:12.398Z,15.10
2023-05-10T14:07:39.829Z,14.07
2023-05-10T14:10:07.350Z,13.53
2023-05-10T14:12:34.254Z,11.17
2023-05-10T14:15:01.307Z,17.33
2023-05-10T14:20:07.957Z,13.50
2023-05-10T14:22:34.900Z,11.37
2023-05-10T14:25:01.909Z,11.97
2023-05-10T14:27:28.987Z,12.93
2023-05-10T14:29:55.822Z,10.83
2023-05-10T14:32:22.783Z,16.77
2023-05-10T14:34:49.696Z,22.03
2023-05-10T14:37:17.411Z,13.77
2023-05-10T14:39:44.425Z,12.37
2023-05-10T14:42:11.316Z,12.43
2023-05-10T14:44:38.482Z,13.43
2023-05-10T14:47:05.395Z,10.80
2023-05-10T14:49:32.726Z,14.10
2023-05-10T14:51:59.572Z,11.73
2023-05-10T14:54:26.428Z,12.20
2023-05-10T14:56:53.252Z,14.23
2023-05-10T14:59:20.097Z,10.87
2023-05-10T15:01:47.591Z,9.93
2023-05-10T15:04:17.222Z,11.53
2023-05-10T15:06:44.859Z,9.17
2023-05-10T15:09:11.907Z,10.07
2023-05-10T15:11:38.745Z,8.73
2023-05-10T15:14:05.713Z,12.17
2023-05-10T15:16:35.700Z,18.47
2023-05-10T15:19:03.165Z,11.63
2023-05-10T15:21:31.892Z,15.20
2023-05-10T15:23:58.732Z,14.87
2023-05-10T15:26:27.373Z,13.23
2023-05-10T15:28:54.247Z,11.63
2023-05-10T15:31:21.096Z,10.47
2023-05-10T15:33:47.978Z,10.50
2023-05-10T15:36:14.808Z,13.03
2023-05-10T15:38:41.640Z,15.43
2023-05-10T15:41:08.465Z,15.20
2023-05-10T15:43:35.292Z,7.47
2023-05-10T15:46:02.213Z,20.70
2023-05-10T15:48:29.288Z,8.00
2023-05-10T15:50:56.968Z,9.77
2023-05-10T15:53:23.837Z,8.10
2023-05-10T15:55:50.746Z,8.50
2023-05-10T15:58:17.581Z,14.10
2023-05-10T16:00:44.464Z,17.13
2023-05-10T16:03:11.376Z,17.47
2023-05-10T16:05:38.233Z,17.00
2023-05-10T16:08:05.220Z,13.27
2023-05-10T16:10:33.452Z,15.40
2023-05-10T16:13:00.736Z,16.70
2023-05-10T16:15:27.694Z,17.60
2023-05-10T16:17:54.712Z,16.70
2023-05-10T16:20:21.772Z,18.07
2023-05-10T16:22:48.656Z,20.07
2023-05-10T16:25:15.739Z,17.70
2023-05-10T16:27:43.422Z,22.17
2023-05-10T16:30:10.588Z,21.67
2023-05-10T16:32:37.438Z,21.33
2023-05-10T16:35:04.920Z,24.00
2023-05-10T16:37:31.757Z,23.43
2023-05-10T16:39:58.546Z,24.67
2023-05-10T16:42:26.210Z,24.60
2023-05-10T16:44:53.837Z,27.60
2023-05-10T16:47:20.770Z,21.70
2023-05-10T16:49:47.692Z,28.80
2023-05-10T16:52:14.508Z,22.80
2023-05-10T16:54:41.378Z,18.97
2023-05-10T16:57:08.782Z,15.27
2023-05-10T16:59:35.693Z,20.87
2023-05-10T17:02:02.613Z,18.03
2023-05-10T17:04:29.493Z,20.40
2023-05-10T17:06:56.453Z,16.07
2023-05-10T17:09:23.446Z,13.87
2023-05-10T17:11:50.287Z,13.60
2023-05-10T17:14:17.110Z,16.90
2023-05-10T17:16:43.968Z,17.80
2023-05-10T17:19:11.396Z,15.03
2023-05-10T17:21:38.251Z,13.93
2023-05-10T17:24:05.345Z,10.33
2023-05-10T17:26:32.257Z,9.83
2023-05-10T17:28:59.094Z,9.43
2023-05-10T17:31:27.401Z,8.03
2023-05-10T17:33:54.627Z,8.77
2023-05-10T17:36:21.631Z,8.30
2023-05-10T17:38:48.614Z,9.57
2023-05-10T17:41:15.494Z,9.60
2023-05-10T17:43:42.311Z,8.67
2023-05-10T17:46:09.186Z,12.93
2023-05-10T17:48:37.193Z,14.33
2023-05-10T17:51:04.518Z,10.03
2023-05-10T17:53:31.642Z,8.80
2023-05-10T17:55:59.284Z,8.80
2023-05-10T17:58:26.159Z,10.47
2023-05-10T18:00:53.456Z,10.03
2023-05-10T18:03:20.720Z,9.17
2023-05-10T18:05:48.117Z,11.07
2023-05-10T18:08:15.379Z,16.37
2023-05-10T18:10:42.285Z,11.73
2023-05-10T18:13:09.517Z,9.80
2023-05-10T18:15:36.543Z,12.07
2023-05-10T18:18:04.769Z,10.53
2023-05-10T18:20:31.991Z,10.00
2023-05-10T18:22:59.146Z,11.00
2023-05-10T18:25:26.495Z,10.60
2023-05-10T18:27:53.376Z,10.93
2023-05-10T18:30:20.264Z,10.23
2023-05-10T18:32:47.290Z,12.30
2023-05-10T18:35:14.784Z,14.63
2023-05-10T18:37:42.158Z,12.43
2023-05-10T18:40:11.219Z,12.67
2023-05-10T18:42:38.252Z,11.97
2023-05-10T18:45:06.157Z,12.17
2023-05-10T18:47:32.998Z,18.60
2023-05-10T18:50:00.188Z,16.70
2023-05-10T18:52:27.089Z,13.67
2023-05-10T18:54:53.901Z,11.07
2023-05-10T18:57:22.024Z,11.30
2023-05-10T18:59:49.488Z,19.23
2023-05-10T19:02:16.488Z,8.40
2023-05-10T19:04:43.558Z,10.47
2023-05-10T19:07:10.384Z,15.63
2023-05-10T19:09:37.312Z,8.90
2023-05-10T19:12:04.262Z,8.97
2023-05-10T19:14:31.204Z,9.07
2023-05-10T19:17:00.073Z,9.30
2023-05-10T19:19:27.571Z,9.13
2023-05-10T19:21:55.976Z,8.57
2023-05-10T19:24:25.842Z,9.17
2023-05-10T19:26:53.112Z,9.97
2023-05-10T19:29:19.926Z,10.47
2023-05-10T19:31:47.129Z,9.23
2023-05-10T19:34:13.980Z,10.80
2023-05-10T19:36:40.993Z,9.57
2023-05-10T19:39:07.874Z,9.70
2023-05-10T19:41:34.784Z,9.57
2023-05-10T19:44:01.596Z,10.50
2023-05-10T19:46:28.573Z,10.40
2023-05-10T19:48:55.438Z,11.40
2023-05-10T19:51:22.420Z,11.93
2023-05-10T19:53:49.369Z,13.90
2023-05-10T19:56:18.413Z,12.83
2023-05-10T19:58:45.695Z,13.63
2023-05-10T20:01:12.824Z,13.03
2023-05-10T20:03:39.802Z,15.13
2023-05-10T20:06:09.587Z,12.43
2023-05-10T20:08:36.426Z,19.17
2023-05-10T20:11:04.036Z,12.07
2023-05-10T20:13:30.945Z,15.23
2023-05-10T20:15:59.608Z,13.90
2023-05-10T20:18:27.183Z,14.00
2023-05-10T20:20:59.283Z,13.00
2023-05-10T20:23:26.538Z,13.33
2023-05-10T20:25:54.843Z,15.53
2023-05-10T20:28:23.450Z,14.63
2023-05-10T20:30:54.802Z,18.20
2023-05-10T20:33:22.715Z,22.93
2023-05-10T20:35:50.545Z,18.53
2023-05-10T20:38:18.411Z,16.83
2023-05-10T20:40:45.795Z,22.57
2023-05-10T20:43:12.858Z,24.10
2023-05-10T20:45:39.778Z,21.07
2023-05-10T20:48:06.841Z,20.00
2023-05-10T20:50:33.749Z,25.83
2023-05-10T20:53:01.647Z,20.23
2023-05-10T20:55:28.968Z,20.17
2023-05-10T20:57:55.889Z,21.77
2023-05-10T21:00:22.797Z,24.83
2023-05-10T21:02:49.836Z,21.70
2023-05-10T21:05:18.480Z,27.03
2023-05-10T21:07:45.384Z,25.00
2023-05-10T21:10:12.500Z,28.40
2023-05-10T21:12:39.422Z,21.83
2023-05-10T21:15:06.830Z,24.90
2023-05-10T21:20:06.527Z,25.20
2023-05-10T21:22:33.384Z,29.70
2023-05-10T21:25:00.243Z,29.10
2023-05-10T21:27:27.474Z,29.20
2023-05-10T21:29:54.346Z,32.97
2023-05-10T21:32:21.217Z,30.53
2023-05-10T21:34:48.077Z,32.80
2023-05-10T21:37:17.073Z,29.23
2023-05-10T21:39:44.362Z,34.23
2023-05-10T21:42:11.488Z,33.53
2023-05-10T21:44:38.851Z,27.90
2023-05-10T21:47:05.861Z,28.70
2023-05-10T21:49:32.670Z,34.33
2023-05-10T21:51:59.502Z,26.73
2023-05-10T21:54:26.502Z,24.90
2023-05-10T21:56:53.436Z,24.33
2023-05-10T21:59:21.784Z,26.50
2023-05-10T22:01:48.850Z,26.67
2023-05-10T22:04:15.842Z,23.23
2023-05-10T22:06:42.714Z,24.80
2023-05-10T22:09:10.215Z,22.57
2023-05-10T22:11:37.101Z,25.10
2023-05-10T22:14:04.109Z,21.90
2023-05-10T22:16:31.171Z,20.50
2023-05-10T22:18:58.110Z,20.40
2023-05-10T22:21:25.091Z,24.13
2023-05-10T22:23:51.978Z,22.87
2023-05-10T22:26:18.853Z,20.37
2023-05-10T22:28:45.649Z,19.73
2023-05-10T22:31:12.821Z,24.07
2023-05-10T22:33:39.783Z,26.50
2023-05-10T22:36:06.900Z,22.87
2023-05-10T22:38:33.792Z,21.20
2023-05-10T22:41:00.803Z,21.33
2023-05-10T22:46:08.196Z,22.07
2023-05-10T22:48:36.028Z,21.73
2023-05-10T22:51:02.897Z,23.20
2023-05-10T22:53:29.725Z,24.90
2023-05-10T22:55:56.683Z,22.73
2023-05-10T22:58:23.793Z,25.20
2023-05-10T23:00:50.849Z,25.83
2023-05-10T23:03:18.102Z,22.73
2023-05-10T23:05:44.984Z,22.43
2023-05-10T23:08:11.865Z,21.67
2023-05-10T23:10:39.250Z,23.57
2023-05-10T23:13:06.460Z,30.03
2023-05-10T23:15:33.511Z,29.03
2023-05-10T23:18:04.697Z,27.40
2023-05-10T23:20:31.817Z,30.53
2023-05-10T23:22:58.921Z,28.20
2023-05-10T23:25:25.751Z,25.90
2023-05-10T23:27:52.602Z,27.27
2023-05-10T23:30:19.699Z,29.03
2023-05-10T23:32:46.645Z,24.03
2023-05-10T23:35:13.501Z,28.73
2023-05-10T23:40:21.781Z,26.67
2023-05-10T23:42:48.660Z,26.83
2023-05-10T23:45:15.824Z,26.00
2023-05-10T23:47:42.929Z,26.23
2023-05-10T23:50:10.454Z,31.23
2023-05-10T23:52:37.424Z,27.10
2023-05-10T23:55:04.427Z,30.23
2023-05-10T23:57:31.234Z,26.17
2023-05-10T23:59:58.208Z,26.70
